createdAt,value
2023-03-17T00:02:27.065Z,0.40
2023-03-17T00:04:56.549Z,0.30
2023-03-17T00:07:26.045Z,0.40
2023-03-17T00:09:55.972Z,0.30
2023-03-17T00:12:25.715Z,0.40
2023-03-17T00:14:55.248Z,0.30
2023-03-17T00:17:25.082Z,0.30
2023-03-17T00:19:55.937Z,0.30
2023-03-17T00:22:27.830Z,0.38
2023-03-17T00:24:57.458Z,0.40
2023-03-17T00:27:28.268Z,0.30
2023-03-17T00:29:57.787Z,0.30
2023-03-17T00:32:27.520Z,0.30
2023-03-17T00:34:58.773Z,0.30
2023-03-17T00:37:29.310Z,0.30
2023-03-17T00:39:58.823Z,0.40
2023-03-17T00:42:28.484Z,0.40
2023-03-17T00:44:58.066Z,0.40
2023-03-17T00:47:27.632Z,0.30
2023-03-17T00:49:58.580Z,0.30
2023-03-17T00:52:28.598Z,0.30
2023-03-17T00:54:58.605Z,0.30
2023-03-17T00:57:28.079Z,0.40
2023-03-17T00:59:57.829Z,0.40
2023-03-17T01:02:30.995Z,0.30
2023-03-17T01:05:06.794Z,0.30
2023-03-17T01:07:37.201Z,0.30
2023-03-17T01:10:13.015Z,0.30
2023-03-17T01:12:43.015Z,0.30
2023-03-17T01:15:12.742Z,0.30
2023-03-17T01:17:43.386Z,0.30
2023-03-17T01:20:18.517Z,0.40
2023-03-17T01:22:48.033Z,0.30
2023-03-17T01:25:17.572Z,0.30
2023-03-17T01:27:47.536Z,0.30
2023-03-17T01:30:26.012Z,0.37
2023-03-17T01:32:55.901Z,0.33
2023-03-17T01:35:29.432Z,0.40
2023-03-17T01:37:59.248Z,0.30
2023-03-17T01:40:30.685Z,0.40
2023-03-17T01:43:01.755Z,0.30
2023-03-17T01:45:50.133Z,0.37
2023-03-17T01:48:19.880Z,0.30
2023-03-17T01:50:51.675Z,0.40
2023-03-17T01:53:22.705Z,0.40
2023-03-17T01:55:53.180Z,0.40
2023-03-17T01:58:24.148Z,0.40
2023-03-17T02:00:53.719Z,0.40
2023-03-17T02:03:24.258Z,0.40
2023-03-17T02:05:56.499Z,0.40
2023-03-17T02:08:26.338Z,0.40
2023-03-17T02:10:58.340Z,0.30
2023-03-17T02:13:28.411Z,0.30
2023-03-17T02:15:57.895Z,0.30
2023-03-17T02:18:27.731Z,0.40
2023-03-17T02:21:15.381Z,0.30
2023-03-17T02:23:46.732Z,0.30
2023-03-17T02:26:16.253Z,0.30
2023-03-17T02:28:46.197Z,0.40
2023-03-17T02:31:16.542Z,0.30
2023-03-17T02:33:46.597Z,0.30
2023-03-17T02:36:16.371Z,0.40
2023-03-17T02:38:49.264Z,0.30
2023-03-17T02:41:18.823Z,0.40
2023-03-17T02:43:48.757Z,0.40
2023-03-17T02:46:18.300Z,0.40
2023-03-17T02:48:47.923Z,0.40
2023-03-17T02:51:17.881Z,0.40
2023-03-17T02:53:48.794Z,0.30
2023-03-17T02:56:18.283Z,0.30
2023-03-17T02:58:47.788Z,0.30
2023-03-17T03:01:21.406Z,0.40
2023-03-17T03:03:51.717Z,0.40
2023-03-17T03:06:21.202Z,0.40
2023-03-17T03:08:52.112Z,0.30
2023-03-17T03:11:21.617Z,0.30
2023-03-17T03:13:51.137Z,0.30
2023-03-17T03:16:20.908Z,0.40
2023-03-17T03:18:50.590Z,0.30
2023-03-17T03:21:20.087Z,0.40
2023-03-17T03:23:49.601Z,0.40
2023-03-17T03:26:20.617Z,0.30
2023-03-17T03:28:50.197Z,0.40
2023-03-17T03:31:19.769Z,0.30
2023-03-17T03:33:49.310Z,0.40
2023-03-17T03:36:21.694Z,0.40
2023-03-17T03:38:51.708Z,0.40
2023-03-17T03:41:22.564Z,0.40
2023-03-17T03:43:52.110Z,0.30
2023-03-17T03:46:21.646Z,0.30
2023-03-17T03:48:51.151Z,0.30
2023-03-17T03:51:20.829Z,0.30
2023-03-17T03:53:50.391Z,0.30
2023-03-17T03:56:19.888Z,0.33
2023-03-17T03:58:51.262Z,0.30
2023-03-17T04:01:20.795Z,0.40
2023-03-17T04:03:50.260Z,0.30
2023-03-17T04:06:19.793Z,0.30
2023-03-17T04:08:49.216Z,0.30
2023-03-17T04:11:19.049Z,0.40
2023-03-17T04:13:48.496Z,0.30
2023-03-17T04:16:19.595Z,0.30
2023-03-17T04:18:49.228Z,0.30
2023-03-17T04:21:19.069Z,0.30
2023-03-17T04:23:48.563Z,0.40
2023-03-17T04:26:19.077Z,0.30
2023-03-17T04:28:48.594Z,0.30
2023-03-17T04:31:19.458Z,0.30
2023-03-17T04:33:49.017Z,0.40
2023-03-17T04:36:20.510Z,0.32
2023-03-17T04:38:50.035Z,0.40
2023-03-17T04:41:19.583Z,0.33
2023-03-17T04:43:49.092Z,0.30
2023-03-17T04:46:19.962Z,0.30
2023-03-17T04:48:49.436Z,0.30
2023-03-17T04:51:18.936Z,0.33
2023-03-17T04:53:48.979Z,0.30
2023-03-17T04:56:18.501Z,0.40
2023-03-17T04:58:47.957Z,0.30
2023-03-17T05:01:17.961Z,0.30
2023-03-17T05:03:49.137Z,0.40
2023-03-17T05:06:18.659Z,0.40
2023-03-17T05:08:48.179Z,0.40
2023-03-17T05:11:17.695Z,0.30
2023-03-17T05:13:47.220Z,0.40
2023-03-17T05:16:16.905Z,0.40
2023-03-17T05:18:47.027Z,0.30
2023-03-17T05:21:17.917Z,0.30
2023-03-17T05:23:47.413Z,0.30
2023-03-17T05:26:17.210Z,0.30
2023-03-17T05:28:46.764Z,0.40
2023-03-17T05:31:16.488Z,0.30
2023-03-17T05:33:46.297Z,0.30
2023-03-17T05:36:15.787Z,0.30
2023-03-17T05:38:46.813Z,0.40
2023-03-17T05:41:16.492Z,0.40
2023-03-17T05:43:46.116Z,0.30
2023-03-17T05:46:15.709Z,0.37
2023-03-17T05:48:45.282Z,0.30
2023-03-17T05:51:14.894Z,0.30
2023-03-17T05:53:44.475Z,0.32
2023-03-17T05:56:15.249Z,0.40
2023-03-17T05:58:44.663Z,0.30
2023-03-17T06:01:14.484Z,0.40
2023-03-17T06:03:44.076Z,0.30
2023-03-17T06:06:13.636Z,0.35
2023-03-17T06:08:43.111Z,0.38
2023-03-17T06:11:12.606Z,0.40
2023-03-17T06:13:43.461Z,0.30
2023-03-17T06:16:13.048Z,0.40
2023-03-17T06:18:42.588Z,0.30
2023-03-17T06:21:12.123Z,0.30
2023-03-17T06:23:41.636Z,0.33
2023-03-17T06:26:11.137Z,0.40
2023-03-17T06:28:40.625Z,0.30
2023-03-17T06:31:12.062Z,0.30
2023-03-17T06:33:41.570Z,0.40
2023-03-17T06:36:11.153Z,0.30
2023-03-17T06:38:40.628Z,0.30
2023-03-17T06:41:10.086Z,0.30
2023-03-17T06:43:39.716Z,0.30
2023-03-17T06:46:09.234Z,0.30
2023-03-17T06:48:40.125Z,0.30
2023-03-17T06:51:09.579Z,0.30
2023-03-17T06:53:39.058Z,0.30
2023-03-17T06:56:20.023Z,0.30
2023-03-17T06:58:56.789Z,0.30
2023-03-17T07:01:27.381Z,0.30
2023-03-17T07:03:58.756Z,0.30
2023-03-17T07:06:28.593Z,0.40
2023-03-17T07:09:00.345Z,0.30
2023-03-17T07:11:32.707Z,0.30
2023-03-17T07:14:02.677Z,0.30
2023-03-17T07:16:32.993Z,0.30
2023-03-17T07:19:03.858Z,0.30
2023-03-17T07:21:33.341Z,0.30
2023-03-17T07:24:02.832Z,0.30
2023-03-17T07:26:32.576Z,0.30
2023-03-17T07:29:02.052Z,0.30
2023-03-17T07:31:31.589Z,0.30
2023-03-17T07:34:01.152Z,0.30
2023-03-17T07:36:32.034Z,0.30
2023-03-17T07:39:02.399Z,0.30
2023-03-17T07:41:31.905Z,0.30
2023-03-17T07:44:01.856Z,0.30
2023-03-17T07:46:31.459Z,0.30
2023-03-17T07:49:01.670Z,0.30
2023-03-17T07:51:32.524Z,0.30
2023-03-17T07:54:05.806Z,0.30
2023-03-17T07:56:35.656Z,0.30
2023-03-17T07:59:05.162Z,0.30
2023-03-17T08:01:34.828Z,0.30
2023-03-17T08:04:08.499Z,0.25
2023-03-17T08:06:40.716Z,0.30
2023-03-17T08:09:11.052Z,0.30
2023-03-17T08:11:40.890Z,0.20
2023-03-17T08:14:11.777Z,0.30
2023-03-17T08:16:41.322Z,0.30
2023-03-17T08:19:11.138Z,0.30
2023-03-17T08:21:42.096Z,0.30
2023-03-17T08:24:11.948Z,0.20
2023-03-17T08:26:41.494Z,0.20
2023-03-17T08:29:11.263Z,0.30
2023-03-17T08:31:41.050Z,0.20
2023-03-17T08:34:10.628Z,0.20
2023-03-17T08:36:40.112Z,0.30
2023-03-17T08:39:11.443Z,0.30
2023-03-17T08:41:41.713Z,0.28
2023-03-17T08:44:13.041Z,0.20
2023-03-17T08:46:42.749Z,0.30
2023-03-17T08:49:12.524Z,0.20
2023-03-17T08:51:42.377Z,0.20
2023-03-17T08:54:25.595Z,0.20
2023-03-17T08:56:55.063Z,0.20
2023-03-17T08:59:24.900Z,0.20
2023-03-17T09:01:54.669Z,0.20
2023-03-17T09:04:24.244Z,0.30
2023-03-17T09:07:03.361Z,0.30
2023-03-17T09:09:35.615Z,0.20
2023-03-17T09:12:06.682Z,0.20
2023-03-17T09:14:43.410Z,0.30
2023-03-17T09:17:15.370Z,0.20
2023-03-17T09:19:44.986Z,0.20
2023-03-17T09:22:14.993Z,0.20
2023-03-17T09:24:46.013Z,0.27
2023-03-17T09:27:15.732Z,0.20
2023-03-17T09:29:45.247Z,0.20
2023-03-17T09:32:15.314Z,0.20
2023-03-17T09:34:44.779Z,0.20
2023-03-17T09:37:14.440Z,0.20
2023-03-17T09:39:43.939Z,0.20
2023-03-17T09:42:22.982Z,0.20
2023-03-17T09:44:58.851Z,0.20
2023-03-17T09:47:43.167Z,0.20
2023-03-17T09:50:15.893Z,0.20
2023-03-17T09:52:45.455Z,0.20
2023-03-17T09:55:18.991Z,0.20
2023-03-17T09:57:52.925Z,0.20
2023-03-17T10:00:26.677Z,0.20
2023-03-17T10:02:56.718Z,0.20
2023-03-17T10:05:27.203Z,0.20
2023-03-17T10:08:00.520Z,0.20
2023-03-17T10:10:32.136Z,0.20
2023-03-17T10:13:08.447Z,0.20
2023-03-17T10:15:41.262Z,0.20
2023-03-17T10:18:12.639Z,0.20
2023-03-17T10:20:45.570Z,0.20
2023-03-17T10:23:17.025Z,0.20
2023-03-17T10:25:46.634Z,0.20
2023-03-17T10:28:23.489Z,0.20
2023-03-17T10:30:53.052Z,0.20
2023-03-17T10:33:22.978Z,0.20
2023-03-17T10:35:53.005Z,0.20
2023-03-17T10:38:23.639Z,0.20
2023-03-17T10:40:58.144Z,0.20
2023-03-17T10:43:31.967Z,0.20
2023-03-17T10:46:03.061Z,0.20
2023-03-17T10:48:34.124Z,0.20
2023-03-17T10:51:07.199Z,0.20
2023-03-17T10:53:38.646Z,0.20
2023-03-17T10:56:10.397Z,0.20
2023-03-17T10:58:42.290Z,0.20
2023-03-17T11:01:20.159Z,0.20
2023-03-17T11:03:50.777Z,0.20
2023-03-17T11:06:21.483Z,0.20
2023-03-17T11:08:53.705Z,0.10
2023-03-17T11:11:24.991Z,0.13
2023-03-17T11:14:02.914Z,0.20
2023-03-17T11:16:34.129Z,0.10
2023-03-17T11:19:04.667Z,0.10
2023-03-17T11:21:35.364Z,0.20
2023-03-17T11:24:09.292Z,0.10
2023-03-17T11:26:57.536Z,0.10
2023-03-17T11:29:36.761Z,0.20
2023-03-17T11:32:11.390Z,0.10
2023-03-17T11:34:52.074Z,0.10
2023-03-17T11:37:27.277Z,0.10
2023-03-17T11:39:59.997Z,0.10
2023-03-17T11:42:34.004Z,0.20
2023-03-17T11:45:15.598Z,0.20
2023-03-17T11:48:02.519Z,0.20
2023-03-17T11:50:35.713Z,0.20
2023-03-17T11:53:18.373Z,0.20
2023-03-17T11:55:50.132Z,0.10
2023-03-17T11:58:27.034Z,0.13
2023-03-17T12:01:00.423Z,0.10
2023-03-17T12:03:33.556Z,0.10
2023-03-17T12:06:06.520Z,0.10
2023-03-17T12:08:39.659Z,0.10
2023-03-17T12:11:12.064Z,0.10
2023-03-17T12:13:45.526Z,0.20
2023-03-17T12:16:19.324Z,0.10
2023-03-17T12:18:52.768Z,0.10
2023-03-17T12:21:25.545Z,0.20
2023-03-17T12:23:58.517Z,0.20
2023-03-17T12:26:34.630Z,0.20
2023-03-17T12:29:06.220Z,0.20
2023-03-17T12:31:38.491Z,0.20
2023-03-17T12:34:15.415Z,0.20
2023-03-17T12:36:45.380Z,0.20
2023-03-17T12:39:16.263Z,0.20
2023-03-17T12:41:52.450Z,0.20
2023-03-17T12:44:31.455Z,0.20
2023-03-17T12:47:16.299Z,0.20
2023-03-17T12:50:16.276Z,0.20
2023-03-17T12:52:57.720Z,0.20
2023-03-17T12:55:27.981Z,0.20
2023-03-17T12:58:02.351Z,0.20
2023-03-17T13:00:33.344Z,0.20
2023-03-17T13:03:20.755Z,0.20
2023-03-17T13:05:52.812Z,0.20
2023-03-17T13:08:25.799Z,0.20
2023-03-17T13:11:15.152Z,0.20
2023-03-17T13:13:46.783Z,0.20
2023-03-17T13:16:29.996Z,0.20
2023-03-17T13:19:23.443Z,0.20
2023-03-17T13:22:15.136Z,0.20
2023-03-17T13:24:47.656Z,0.20
2023-03-17T13:27:37.429Z,0.20
2023-03-17T13:30:26.834Z,0.20
2023-03-17T13:32:59.546Z,0.20
2023-03-17T13:35:39.040Z,0.20
2023-03-17T13:38:22.592Z,0.20
2023-03-17T13:40:59.054Z,0.20
2023-03-17T13:43:43.418Z,0.20
2023-03-17T13:46:24.439Z,0.20
2023-03-17T13:48:56.783Z,0.20
2023-03-17T13:51:27.283Z,0.20
2023-03-17T13:53:57.722Z,0.20
2023-03-17T13:56:29.685Z,0.20
2023-03-17T13:59:06.220Z,0.13
2023-03-17T14:01:38.947Z,0.10
2023-03-17T14:04:14.572Z,0.10
2023-03-17T14:06:44.382Z,0.10
2023-03-17T14:09:20.300Z,0.10
2023-03-17T14:11:49.936Z,0.10
2023-03-17T14:14:32.216Z,0.10
2023-03-17T14:17:06.437Z,0.20
2023-03-17T14:19:41.413Z,0.10
2023-03-17T14:22:21.450Z,0.10
2023-03-17T14:24:53.955Z,0.10
2023-03-17T14:27:24.249Z,0.10
2023-03-17T14:29:54.146Z,0.10
2023-03-17T14:32:26.415Z,0.10
2023-03-17T14:34:59.298Z,0.10
2023-03-17T14:37:29.203Z,0.10
2023-03-17T14:39:59.941Z,0.10
2023-03-17T14:42:30.138Z,0.00
2023-03-17T14:45:03.384Z,0.10
2023-03-17T14:47:34.704Z,0.00
2023-03-17T14:50:07.077Z,0.10
2023-03-17T14:52:41.104Z,0.00
2023-03-17T14:55:15.533Z,0.10
2023-03-17T14:57:49.960Z,0.00
2023-03-17T15:00:38.049Z,0.00
2023-03-17T15:03:18.589Z,0.00
2023-03-17T15:05:50.433Z,0.00
2023-03-17T15:08:47.220Z,0.00
2023-03-17T15:11:19.329Z,0.00
2023-03-17T15:13:49.782Z,0.10
2023-03-17T15:16:22.118Z,0.10
2023-03-17T15:18:55.634Z,0.10
2023-03-17T15:21:30.821Z,0.10
2023-03-17T15:24:00.302Z,0.10
2023-03-17T15:26:32.380Z,0.10
2023-03-17T15:29:02.038Z,0.10
2023-03-17T15:31:31.612Z,0.20
2023-03-17T15:34:01.109Z,0.10
2023-03-17T15:36:33.296Z,0.10
2023-03-17T15:39:04.393Z,0.10
2023-03-17T15:41:33.919Z,0.10
2023-03-17T15:44:05.172Z,0.10
2023-03-17T15:46:34.877Z,0.20
2023-03-17T15:49:07.258Z,0.20
2023-03-17T15:51:38.071Z,0.10
2023-03-17T15:54:07.547Z,0.10
2023-03-17T15:56:38.545Z,0.10
2023-03-17T15:59:08.278Z,0.10
2023-03-17T16:01:38.315Z,0.10
2023-03-17T16:04:08.969Z,0.10
2023-03-17T16:06:39.864Z,0.10
2023-03-17T16:09:15.352Z,0.10
2023-03-17T16:11:44.891Z,0.10
2023-03-17T16:14:14.397Z,0.20
2023-03-17T16:16:45.859Z,0.20
2023-03-17T16:19:20.090Z,0.10
2023-03-17T16:21:50.980Z,0.10
2023-03-17T16:24:21.742Z,0.10
2023-03-17T16:26:51.733Z,0.10
2023-03-17T16:29:22.548Z,0.20
2023-03-17T16:31:52.318Z,0.10
2023-03-17T16:34:22.869Z,0.20
2023-03-17T16:36:54.595Z,0.20
2023-03-17T16:39:25.761Z,0.20
2023-03-17T16:41:55.279Z,0.10
2023-03-17T16:44:24.832Z,0.10
2023-03-17T16:46:54.450Z,0.20
2023-03-17T16:49:25.626Z,0.13
2023-03-17T16:51:56.480Z,0.20
2023-03-17T16:54:31.189Z,0.20
2023-03-17T16:57:00.995Z,0.20
2023-03-17T16:59:31.631Z,0.20
2023-03-17T17:02:02.138Z,0.20
2023-03-17T17:04:34.476Z,0.20
2023-03-17T17:07:05.356Z,0.10
2023-03-17T17:09:34.868Z,0.20
2023-03-17T17:12:04.541Z,0.20
2023-03-17T17:14:40.582Z,0.20
2023-03-17T17:17:11.070Z,0.20
2023-03-17T17:19:40.645Z,0.10
2023-03-17T17:22:12.839Z,0.13
2023-03-17T17:24:42.307Z,0.20
2023-03-17T17:27:11.815Z,0.20
2023-03-17T17:29:41.551Z,0.20
2023-03-17T17:32:11.129Z,0.20
2023-03-17T17:34:40.868Z,0.20
2023-03-17T17:37:11.118Z,0.20
2023-03-17T17:39:42.038Z,0.10
2023-03-17T17:42:11.960Z,0.20
2023-03-17T17:44:42.834Z,0.10
2023-03-17T17:47:12.368Z,0.20
2023-03-17T17:49:43.335Z,0.20
2023-03-17T17:52:12.900Z,0.10
2023-03-17T17:54:43.785Z,0.20
2023-03-17T17:57:13.716Z,0.20
2023-03-17T17:59:43.219Z,0.20
2023-03-17T18:02:13.174Z,0.10
2023-03-17T18:04:42.782Z,0.10
2023-03-17T18:07:12.434Z,0.13
2023-03-17T18:09:41.921Z,0.20
2023-03-17T18:12:12.995Z,0.20
2023-03-17T18:14:42.530Z,0.20
2023-03-17T18:17:12.081Z,0.20
2023-03-17T18:19:41.609Z,0.10
2023-03-17T18:22:11.488Z,0.10
2023-03-17T18:24:41.018Z,0.13
2023-03-17T18:27:10.705Z,0.17
2023-03-17T18:29:41.681Z,0.20
2023-03-17T18:32:12.423Z,0.20
2023-03-17T18:34:44.242Z,0.20
2023-03-17T18:37:15.384Z,0.20
2023-03-17T18:39:52.996Z,0.20
2023-03-17T18:42:28.351Z,0.20
2023-03-17T18:44:59.534Z,0.20
2023-03-17T18:47:29.074Z,0.10
2023-03-17T18:49:59.657Z,0.10
2023-03-17T18:52:32.899Z,0.20
2023-03-17T18:55:02.354Z,0.20
2023-03-17T18:57:32.274Z,0.20
2023-03-17T19:00:05.003Z,0.20
2023-03-17T19:02:34.513Z,0.20
2023-03-17T19:05:04.031Z,0.20
2023-03-17T19:07:33.502Z,0.20
2023-03-17T19:10:04.529Z,0.20
2023-03-17T19:12:34.057Z,0.20
2023-03-17T19:15:05.134Z,0.20
2023-03-17T19:17:34.953Z,0.20
2023-03-17T19:20:05.025Z,0.10
2023-03-17T19:22:34.901Z,0.20
2023-03-17T19:25:04.953Z,0.10
2023-03-17T19:27:34.501Z,0.20
2023-03-17T19:30:05.718Z,0.20
2023-03-17T19:32:35.289Z,0.20
2023-03-17T19:35:04.832Z,0.20
2023-03-17T19:37:34.302Z,0.20
2023-03-17T19:40:05.194Z,0.20
2023-03-17T19:42:35.167Z,0.10
2023-03-17T19:45:06.415Z,0.20
2023-03-17T19:47:36.153Z,0.20
2023-03-17T19:50:05.847Z,0.20
2023-03-17T19:52:35.489Z,0.20
2023-03-17T19:55:08.080Z,0.20
2023-03-17T19:57:37.883Z,0.20
2023-03-17T20:00:11.787Z,0.20
2023-03-17T20:02:41.308Z,0.20
2023-03-17T20:05:10.978Z,0.20
2023-03-17T20:07:40.853Z,0.20
2023-03-17T20:10:11.074Z,0.20
2023-03-17T20:12:42.600Z,0.20
2023-03-17T20:15:13.980Z,0.13
2023-03-17T20:17:43.484Z,0.20
2023-03-17T20:20:14.423Z,0.20
2023-03-17T20:22:44.917Z,0.20
2023-03-17T20:25:14.993Z,0.10
2023-03-17T20:27:45.953Z,0.20
2023-03-17T20:30:17.565Z,0.20
2023-03-17T20:32:48.292Z,0.20
2023-03-17T20:35:18.765Z,0.20
2023-03-17T20:37:48.356Z,0.13
2023-03-17T20:40:18.002Z,0.20
2023-03-17T20:42:47.388Z,0.20
2023-03-17T20:45:18.413Z,0.20
2023-03-17T20:47:48.311Z,0.20
2023-03-17T20:50:17.988Z,0.20
2023-03-17T20:52:47.817Z,0.10
2023-03-17T20:55:17.787Z,0.20
2023-03-17T20:57:48.624Z,0.20
2023-03-17T21:00:21.251Z,0.20
2023-03-17T21:02:50.992Z,0.10
2023-03-17T21:05:21.290Z,0.20
2023-03-17T21:07:51.519Z,0.20
2023-03-17T21:10:21.313Z,0.20
2023-03-17T21:12:50.793Z,0.10
2023-03-17T21:15:22.882Z,0.20
2023-03-17T21:17:52.516Z,0.20
2023-03-17T21:20:23.308Z,0.20
2023-03-17T21:22:52.816Z,0.20
2023-03-17T21:25:22.315Z,0.20
2023-03-17T21:27:52.758Z,0.20
2023-03-17T21:30:23.780Z,0.20
2023-03-17T21:32:54.706Z,0.20
2023-03-17T21:35:25.039Z,0.20
2023-03-17T21:37:54.784Z,0.20
2023-03-17T21:40:26.211Z,0.20
2023-03-17T21:42:55.834Z,0.20
2023-03-17T21:45:26.873Z,0.20
2023-03-17T21:47:56.530Z,0.20
2023-03-17T21:50:26.011Z,0.20
2023-03-17T21:52:55.548Z,0.20
2023-03-17T21:55:25.385Z,0.20
2023-03-17T21:57:55.670Z,0.20
2023-03-17T22:00:30.952Z,0.20
2023-03-17T22:03:06.219Z,0.20
2023-03-17T22:05:35.967Z,0.20
2023-03-17T22:08:05.583Z,0.23
2023-03-17T22:10:35.278Z,0.20
2023-03-17T22:13:04.854Z,0.20
2023-03-17T22:15:35.854Z,0.20
2023-03-17T22:18:06.004Z,0.30
2023-03-17T22:20:35.794Z,0.20
2023-03-17T22:23:05.855Z,0.30
2023-03-17T22:25:35.342Z,0.20
2023-03-17T22:28:04.883Z,0.30
2023-03-17T22:30:35.820Z,0.30
2023-03-17T22:33:06.367Z,0.20
2023-03-17T22:35:36.538Z,0.20
2023-03-17T22:38:06.157Z,0.20
2023-03-17T22:40:36.189Z,0.20
2023-03-17T22:43:05.738Z,0.20
2023-03-17T22:45:36.796Z,0.30
2023-03-17T22:48:06.334Z,0.27
2023-03-17T22:50:36.007Z,0.20
2023-03-17T22:53:05.728Z,0.20
2023-03-17T22:55:36.120Z,0.30
2023-03-17T22:58:05.756Z,0.20
2023-03-17T23:00:36.154Z,0.20
2023-03-17T23:03:07.387Z,0.20
2023-03-17T23:05:36.862Z,0.20
2023-03-17T23:08:06.454Z,0.20
2023-03-17T23:10:36.360Z,0.20
2023-03-17T23:13:06.236Z,0.20
2023-03-17T23:15:36.097Z,0.30
2023-03-17T23:18:07.493Z,0.20
2023-03-17T23:20:36.963Z,0.20
2023-03-17T23:23:07.107Z,0.20
2023-03-17T23:25:36.706Z,0.20
2023-03-17T23:28:06.886Z,0.20
2023-03-17T23:30:36.454Z,0.20
2023-03-17T23:33:07.562Z,0.20
2023-03-17T23:35:37.140Z,0.20
2023-03-17T23:38:06.570Z,0.20
2023-03-17T23:40:36.058Z,0.20
2023-03-17T23:43:05.696Z,0.30
2023-03-17T23:45:36.380Z,0.20
2023-03-17T23:48:07.582Z,0.20
2023-03-17T23:50:37.193Z,0.20
2023-03-17T23:53:06.813Z,0.30
2023-03-17T23:55:36.376Z,0.20
2023-03-17T23:58:06.602Z,0.20
